Time;durP1;ratioP1;P1;durP2;ratioP2;P2;SDS_P1;SDS_P2;PMS_P1;PMS_P2;Temp;Humidity;BMP_temperature;BMP_pressure;BME280_temperature;BME280_humidity;BME280_pressure;Samples;Min_cycle;Max_cycle;Signal;HPM_P1;HPM_P2
2020/12/07 00:01:09;;;;;;;25.37;11.55;;;;;;;-5.25;68.06;100939.28;1754463;81;21391;-34
2020/12/07 00:03:37;;;;;;;23.25;12.33;;;;;;;-5.29;67.95;100948.67;1755199;81;21683;-34
2020/12/07 00:06:06;;;;;;;22.75;12.28;;;;;;;-5.29;67.95;100948.67;1769189;81;20972;-34
2020/12/07 00:08:36;;;;;;;22.35;12.55;;;;;;;-5.31;67.79;100947.55;1766893;81;21154;-34
2020/12/07 00:11:04;;;;;;;;;;;;;;;-5.31;67.79;100947.55;1737339;81;21154;-34
2020/12/07 00:13:32;;;;;;;23.18;11.90;;;;;;;-5.37;68.27;100947.60;1742095;81;21434;-34
2020/12/07 00:16:01;;;;;;;25.35;12.47;;;;;;;-5.37;68.27;100947.60;1738939;81;21616;-34
2020/12/07 00:18:29;;;;;;;20.25;10.50;;;;;;;-5.36;67.94;100946.08;1734244;81;21149;-34
2020/12/07 00:20:58;;;;;;;;;;;;;;;-5.36;67.94;100946.08;1741939;81;21172;-34
2020/12/07 00:23:27;;;;;;;23.87;11.95;;;;;;;-5.36;67.91;100959.29;1757629;81;20258;-34
2020/12/07 00:25:55;;;;;;;22.80;11.57;;;;;;;-5.45;68.21;100951.34;1763921;81;22107;-34
2020/12/07 00:28:23;;;;;;;20.43;11.45;;;;;;;-5.43;68.14;100948.48;1767294;81;21629;-34
2020/12/07 00:30:51;;;;;;;23.65;12.23;;;;;;;-5.40;67.84;100946.73;1769158;81;20979;-34
2020/12/07 00:33:20;;;;;;;19.52;11.57;;;;;;;-5.45;67.93;100954.48;1757134;81;21405;-34
2020/12/07 00:35:48;;;;;;;21.02;11.20;;;;;;;-5.49;67.86;100947.52;1764282;81;21174;-34
2020/12/07 00:38:16;;;;;;;24.35;12.68;;;;;;;-5.48;67.67;100949.64;1755693;81;22115;-34
2020/12/07 00:40:45;;;;;;;21.52;11.90;;;;;;;-5.55;67.73;100946.23;1743199;81;21178;-34
2020/12/07 00:43:13;;;;;;;22.65;11.18;;;;;;;-5.65;67.89;100944.58;1750115;81;21146;-34
2020/12/07 00:45:42;;;;;;;22.48;11.18;;;;;;;-5.63;67.78;100942.03;1754822;81;21096;-34
2020/12/07 00:48:10;;;;;;;24.25;11.15;;;;;;;-5.64;67.77;100946.20;1769111;80;21570;-34
2020/12/07 00:50:38;;;;;;;22.37;10.80;;;;;;;-5.67;67.84;100944.00;1755700;80;21199;-34
2020/12/07 00:53:07;;;;;;;23.87;11.08;;;;;;;-5.71;67.87;100947.56;1767968;80;21564;-34
2020/12/07 00:55:36;;;;;;;22.32;11.57;;;;;;;-5.71;67.84;100948.38;1789478;79;21163;-35
2020/12/07 00:58:04;;;;;;;18.25;10.50;;;;;;;-5.72;67.81;100947.28;1802113;78;20992;-34
2020/12/07 01:00:35;;;;;;;23.05;11.63;;;;;;;-5.76;68.05;100946.10;1779142;79;21162;-35
2020/12/07 01:03:04;;;;;;;19.50;10.03;;;;;;;-5.80;68.04;100950.97;1801257;79;22263;-34
2020/12/07 01:05:32;;;;;;;22.62;11.68;;;;;;;-5.86;68.11;100949.20;1781962;80;21170;-34
2020/12/07 01:08:00;;;;;;;18.90;11.15;;;;;;;-5.83;67.81;100940.85;1783324;79;21011;-35
2020/12/07 01:10:30;;;;;;;24.57;10.32;;;;;;;-5.83;67.81;100940.85;1782450;79;21444;-34
2020/12/07 01:12:59;;;;;;;20.85;11.00;;;;;;;-5.86;67.77;100949.20;1784583;79;21593;-34
2020/12/07 01:15:28;;;;;;;20.97;10.40;;;;;;;-5.93;67.98;100952.42;1778191;79;21342;-34
2020/12/07 01:17:58;;;;;;;19.80;10.40;;;;;;;-5.97;68.14;100954.38;1802793;79;21189;-34
2020/12/07 01:20:26;;;;;;;18.12;10.08;;;;;;;-6.02;68.09;100947.09;1799549;79;21160;-34
2020/12/07 01:22:55;;;;;;;21.15;10.98;;;;;;;-6.02;68.09;100947.09;1799591;79;21158;-34
2020/12/07 01:25:23;;;;;;;19.95;10.72;;;;;;;-6.07;68.06;100939.51;1811993;78;21107;-33
2020/12/07 01:27:52;;;;;;;19.52;10.23;;;;;;;-6.04;68.00;100942.52;1796267;79;21605;-34
2020/12/07 01:30:22;;;;;;;18.92;10.28;;;;;;;-6.06;67.89;100941.13;1782565;79;21032;-34
2020/12/07 01:32:50;;;;;;;17.92;9.95;;;;;;;-6.07;67.96;100939.00;1791711;79;21130;-34
2020/12/07 01:35:19;;;;;;;18.45;9.90;;;;;;;-6.13;68.08;100938.52;1806043;79;21154;-33
2020/12/07 01:37:47;;;;;;;17.82;9.55;;;;;;;-6.19;68.17;100942.80;1813155;79;21468;-34
2020/12/07 01:40:16;;;;;;;18.87;10.60;;;;;;;-6.17;68.11;100934.69;1813205;79;21672;-33
2020/12/07 01:42:45;;;;;;;22.13;10.58;;;;;;;-6.20;68.13;100936.44;1796032;79;21134;-33
2020/12/07 01:45:13;;;;;;;18.55;10.00;;;;;;;-6.25;68.17;100928.34;1802734;79;21126;-33
2020/12/07 01:47:41;;;;;;;17.45;10.15;;;;;;;-6.31;68.31;100933.14;1813733;79;21137;-34
2020/12/07 01:50:11;;;;;;;17.10;10.08;;;;;;;-6.34;68.42;100933.03;1796976;79;21118;-34
2020/12/07 01:52:41;;;;;;;15.07;7.97;;;;;;;-6.37;68.43;100937.93;1806761;79;22090;-35
2020/12/07 01:55:10;;;;;;;20.07;9.73;;;;;;;-6.32;68.27;100930.19;1772969;79;22347;-34
2020/12/07 01:57:46;;;;;;;19.95;10.38;;;;;;;-6.32;68.12;100932.33;1765162;79;21368;-34
2020/12/07 02:00:14;;;;;;;18.90;10.98;;;;;;;-6.39;68.04;100936.03;1769673;79;21630;-34
2020/12/07 02:02:51;;;;;;;19.57;10.28;;;;;;;-6.50;68.29;100934.04;1771713;79;21170;-34
2020/12/07 02:05:22;;;;;;;22.80;10.23;;;;;;;-6.43;67.95;100931.66;1790975;79;21571;-33
2020/12/07 02:08:11;;;;;;;;;;;;;;;-6.45;67.89;100935.54;1768567;79;21202;-34
2020/12/07 02:10:40;;;;;;;18.32;8.90;;;;;;;-6.38;67.71;100934.48;1783925;79;20161;-34
2020/12/07 02:13:10;;;;;;;18.35;10.00;;;;;;;-6.47;67.83;100933.61;1789027;79;21161;-33
2020/12/07 02:15:39;;;;;;;20.32;11.38;;;;;;;-6.46;67.71;100933.91;1765950;79;21625;-34
2020/12/07 02:18:08;;;;;;;19.93;10.10;;;;;;;-6.55;67.87;100935.98;1780306;79;21357;-34
2020/12/07 02:20:37;;;;;;;20.95;10.13;;;;;;;-6.50;67.63;100937.48;1795581;79;21009;-34
2020/12/07 02:23:06;;;;;;;23.57;11.73;;;;;;;-6.47;67.62;100940.20;1778405;79;21445;-34
2020/12/07 02:25:55;;;;;;;19.35;10.32;;;;;;;-6.49;67.63;100933.84;1830638;78;22661;-34
2020/12/07 02:28:25;;;;;;;;;;;;;;;-6.54;67.73;100939.44;1823032;78;21011;-34
2020/12/07 02:30:54;;;;;;;17.70;10.00;;;;;;;-6.50;67.47;100945.91;1822170;78;22126;-34
2020/12/07 02:33:23;;;;;;;21.20;11.27;;;;;;;-6.57;67.46;100942.47;1822129;78;21038;-34
2020/12/07 02:35:52;;;;;;;20.43;10.85;;;;;;;-6.57;67.38;100949.06;1794479;78;21265;-33
2020/12/07 02:38:21;;;;;;;22.58;10.70;;;;;;;-6.55;67.33;100943.09;1813593;79;20976;-34
2020/12/07 02:40:54;;;;;;;19.62;10.70;;;;;;;-6.50;67.05;100947.23;1783532;78;21044;-34
2020/12/07 02:43:22;;;;;;;19.10;10.03;;;;;;;-6.44;66.83;100947.72;1774502;78;21210;-34
2020/12/07 02:45:51;;;;;;;21.80;10.82;;;;;;;-6.45;66.79;100943.45;1798628;78;20981;-33
2020/12/07 02:48:20;;;;;;;18.32;10.15;;;;;;;-6.47;66.77;100948.93;1799364;78;20991;-34
2020/12/07 02:50:51;;;;;;;24.72;11.88;;;;;;;-6.44;66.46;100950.36;1748481;81;21196;-33
2020/12/07 02:53:19;;;;;;;23.42;10.98;;;;;;;-6.44;66.19;100947.72;1780238;80;21168;-34
2020/12/07 02:55:48;;;;;;;20.57;10.58;;;;;;;-6.45;66.19;100948.73;1748110;82;21534;-33
2020/12/07 02:58:16;;;;;;;20.57;10.05;;;;;;;-6.43;66.07;100951.95;1738966;81;21617;-33
2020/12/07 03:00:46;;;;;;;19.00;10.05;;;;;;;-6.42;66.01;100953.07;1779010;80;21437;-34
2020/12/07 03:03:16;;;;;;;;;;;;;;;-6.87;65.91;100887.59;1768223;80;21440;-34
2020/12/07 03:05:44;;;;;;;22.73;11.00;;;;;;;-6.47;65.84;100954.71;1755354;80;20272;-35
2020/12/07 03:08:17;;;;;;;21.23;9.95;;;;;;;-6.62;66.15;100958.92;1748953;82;21225;-34
2020/12/07 03:10:46;;;;;;;22.82;11.88;;;;;;;-6.67;66.30;100960.86;1727852;82;21178;-34
2020/12/07 03:13:15;;;;;;;20.37;10.45;;;;;;;-6.75;66.57;100957.15;1757554;80;21443;-35
2020/12/07 03:15:45;;;;;;;21.25;10.75;;;;;;;-6.75;66.49;100955.02;1747846;82;21024;-34
2020/12/07 03:18:14;;;;;;;21.70;11.38;;;;;;;-6.77;66.62;100953.89;1773833;80;21153;-35
2020/12/07 03:20:44;;;;;;;20.88;10.10;;;;;;;-6.76;66.49;100947.61;1746686;80;21476;-34
2020/12/07 03:23:13;;;;;;;24.98;11.12;;;;;;;-6.80;66.61;100950.88;1750259;80;21405;-34
2020/12/07 03:25:42;;;;;;;22.15;11.53;;;;;;;-6.85;66.66;100946.22;1743570;80;21645;-34
2020/12/07 03:28:10;;;;;;;19.70;10.98;;;;;;;-6.82;66.55;100951.06;1747036;81;21605;-34
2020/12/07 03:30:39;;;;;;;23.47;11.38;;;;;;;-6.84;66.57;100949.67;1813848;78;21182;-34
2020/12/07 03:33:08;;;;;;;21.00;10.88;;;;;;;-6.88;66.69;100956.38;1776597;79;21275;-33
2020/12/07 03:35:38;;;;;;;23.10;10.90;;;;;;;-6.84;66.58;100962.85;1785990;78;21154;-34
2020/12/07 03:38:08;;;;;;;;;;;;;;;-6.83;66.35;100959.20;1797926;78;21011;-33
2020/12/07 03:40:36;;;;;;;22.75;10.95;;;;;;;-6.91;66.26;100953.62;1813374;78;20291;-35
2020/12/07 03:43:06;;;;;;;21.27;10.40;;;;;;;-6.96;66.46;100952.63;1748455;81;21171;-34
2020/12/07 03:45:38;;;;;;;20.17;10.10;;;;;;;-6.95;66.21;100942.38;1752301;80;21421;-34
2020/12/07 03:48:06;;;;;;;18.12;10.60;;;;;;;-6.98;66.10;100941.48;1784477;78;21409;-34
2020/12/07 03:50:35;;;;;;;17.92;10.00;;;;;;;-6.97;65.99;100945.22;1789125;78;21553;-34
2020/12/07 03:53:04;;;;;;;22.73;11.17;;;;;;;-7.05;66.14;100942.30;1783754;80;21146;-34
2020/12/07 03:55:33;;;;;;;19.40;10.53;;;;;;;-7.11;66.19;100933.89;1719007;83;21593;-34
2020/12/07 03:58:03;;;;;;;19.50;10.58;;;;;;;-7.08;66.19;100932.69;1767034;80;21225;-33
2020/12/07 04:00:32;;;;;;;16.45;7.97;;;;;;;-7.07;66.03;100944.33;1790598;78;21617;-34
2020/12/07 04:03:05;;;;;;;25.17;10.40;;;;;;;-7.05;66.01;100940.17;1766461;80;21004;-34
2020/12/07 04:05:38;;;;;;;20.90;9.93;;;;;;;-7.10;65.97;100939.98;1783200;78;21027;-34
2020/12/07 04:08:05;;;;;;;16.35;9.40;;;;;;;-7.12;66.04;100939.39;1795339;78;21593;-34
2020/12/07 04:10:38;;;;;;;19.42;10.35;;;;;;;-7.12;66.32;100936.75;1748980;80;21433;-33
2020/12/07 04:13:07;;;;;;;18.12;9.55;;;;;;;-7.09;65.93;100935.83;1815581;79;21138;-34
2020/12/07 04:15:35;;;;;;;17.48;9.35;;;;;;;-7.06;65.79;100935.41;1784993;78;21102;-33
2020/12/07 04:18:04;;;;;;;18.12;9.88;;;;;;;-7.14;65.86;100932.19;1793758;78;21027;-33
2020/12/07 04:20:32;;;;;;;19.67;10.00;;;;;;;-7.17;65.97;100933.92;1749200;80;21418;-34
2020/12/07 04:23:00;;;;;;;16.30;8.50;;;;;;;-7.10;65.74;100934.70;1787745;78;21198;-34
2020/12/07 04:25:29;;;;;;;17.70;9.75;;;;;;;-7.07;65.48;100943.54;1767751;78;21160;-34
2020/12/07 04:27:58;;;;;;;19.98;10.63;;;;;;;-7.05;65.42;100944.12;1752007;80;21151;-33
2020/12/07 04:30:26;;;;;;;19.40;9.48;;;;;;;-7.03;65.30;100948.70;1761739;80;21158;-34
2020/12/07 04:32:55;;;;;;;18.87;10.40;;;;;;;-7.00;65.17;100946.95;1712959;83;21172;-34
2020/12/07 04:35:23;;;;;;;19.62;10.03;;;;;;;-7.01;65.21;100947.97;1720111;82;21434;-37
2020/12/07 04:37:51;;;;;;;17.10;9.70;;;;;;;-6.98;65.12;100942.80;1769002;80;21162;-34
2020/12/07 04:40:20;;;;;;;27.90;10.65;;;;;;;-7.01;65.09;100938.73;1770637;80;21130;-34
2020/12/07 04:42:48;;;;;;;18.77;10.23;;;;;;;-7.01;65.13;100938.73;1756363;80;21171;-34
2020/12/07 04:45:16;;;;;;;24.07;11.10;;;;;;;-7.13;65.21;100928.03;1762200;80;21168;-34
2020/12/07 04:47:45;;;;;;;18.40;9.28;;;;;;;-7.00;65.17;100930.33;1771968;80;21343;-34
2020/12/07 04:50:14;;;;;;;20.72;10.50;;;;;;;-7.06;65.22;100930.64;1713576;82;21726;-34
2020/12/07 04:52:42;;;;;;;18.52;9.50;;;;;;;-7.10;65.25;100925.48;1721964;82;21172;-34
2020/12/07 04:55:11;;;;;;;21.00;9.83;;;;;;;-7.08;65.08;100928.23;1687420;85;21164;-34
2020/12/07 04:57:39;;;;;;;19.17;9.63;;;;;;;-7.14;65.09;100928.23;1699239;82;21148;-33
2020/12/07 05:00:07;;;;;;;22.95;10.53;;;;;;;-7.18;65.15;100925.70;1719304;82;21290;-34
2020/12/07 05:02:37;;;;;;;20.75;10.08;;;;;;;-7.12;65.01;100924.39;1776941;80;21045;-34
2020/12/07 05:05:06;;;;;;;19.17;9.80;;;;;;;-7.14;64.96;100919.82;1779436;80;21668;-34
2020/12/07 05:07:35;;;;;;;19.82;8.83;;;;;;;-7.17;65.05;100918.11;1761107;80;21053;-34
2020/12/07 05:12:50;;;;;;;21.15;10.60;;;;;;;-7.06;64.73;100923.55;1814212;78;22869;-34
2020/12/07 05:15:19;;;;;;;21.87;10.58;;;;;;;-7.14;64.93;100915.87;1807217;79;20956;-34
2020/12/07 05:17:47;;;;;;;23.75;10.78;;;;;;;-7.10;64.83;100928.12;1807380;79;21254;-34
2020/12/07 05:20:15;;;;;;;21.30;10.72;;;;;;;-7.09;64.87;100934.51;1808263;79;20969;-35
2020/12/07 05:22:44;;;;;;;27.77;11.30;;;;;;;-7.04;64.68;100933.89;1766790;79;21143;-35
2020/12/07 05:25:13;;;;;;;;;;;;;;;-7.06;64.56;100938.55;1808126;79;21000;-35
2020/12/07 05:27:44;;;;;;;17.75;9.65;;;;;;;-7.08;64.87;100935.33;1790896;79;20291;-35
2020/12/07 05:30:25;;;;;;;22.55;10.65;;;;;;;-7.15;64.61;100923.97;1805805;79;21369;-35
2020/12/07 05:32:52;;;;;;;15.67;8.47;;;;;;;-7.15;64.45;100933.19;1799682;79;21059;-35
2020/12/07 05:35:20;;;;;;;19.00;9.53;;;;;;;-7.15;64.39;100934.51;1776232;80;21165;-35
2020/12/07 05:37:48;;;;;;;18.73;9.98;;;;;;;-7.13;64.26;100937.77;1777635;79;21023;-35
2020/12/07 05:40:16;;;;;;;18.80;10.28;;;;;;;-7.16;64.34;100931.06;1776352;80;21150;-35
2020/12/07 05:42:45;;;;;;;20.02;9.28;;;;;;;-7.19;64.38;100934.12;1787428;79;21441;-35
2020/12/07 05:45:13;;;;;;;20.57;10.03;;;;;;;-7.18;64.24;100934.93;1792994;79;21126;-35
2020/12/07 05:47:42;;;;;;;19.30;9.35;;;;;;;-7.21;64.33;100936.13;1800754;79;20984;-35
2020/12/07 05:52:49;;;;;;;17.65;9.20;;;;;;;-7.11;64.24;100947.58;1815263;77;22475;-36
2020/12/07 05:55:19;;;;;;;18.57;9.78;;;;;;;-7.19;64.31;100951.75;1731928;80;21161;-36
2020/12/07 05:57:58;;;;;;;16.45;9.30;;;;;;;-7.21;64.44;100941.94;1744513;81;21143;-36
2020/12/07 06:00:26;;;;;;;20.08;10.08;;;;;;;-7.20;64.41;100945.66;1745114;80;21078;-33
2020/12/07 06:02:55;;;;;;;19.52;9.65;;;;;;;-7.14;64.35;100942.73;1749386;82;21299;-33
2020/12/07 06:05:23;;;;;;;17.00;9.10;;;;;;;-7.10;64.26;100933.39;1764309;80;21007;-33
2020/12/07 06:08:14;;;;;;;19.32;9.70;;;;;;;-7.11;64.13;100940.48;1779714;80;20999;-34
2020/12/07 06:10:58;;;;;;;23.62;9.43;;;;;;;-7.12;64.32;100944.66;1743107;80;21812;-34
2020/12/07 06:13:27;;;;;;;19.77;9.23;;;;;;;-7.14;64.55;100936.14;1717787;82;21071;-33
2020/12/07 06:15:56;;;;;;;18.17;9.45;;;;;;;-7.64;64.63;100867.80;1725212;81;21573;-34
2020/12/07 06:18:27;;;;;;;20.95;9.68;;;;;;;-7.23;64.70;100934.73;1742072;81;21187;-34
2020/12/07 06:21:15;;;;;;;18.25;10.43;;;;;;;-7.16;64.65;100944.74;1734078;81;21182;-34
2020/12/07 06:23:44;;;;;;;21.12;10.95;;;;;;;-7.14;64.46;100937.45;1693760;82;21389;-35
2020/12/07 06:26:14;;;;;;;23.05;10.38;;;;;;;-7.18;64.66;100933.61;1744139;81;21123;-34
2020/12/07 06:28:45;;;;;;;17.35;9.85;;;;;;;-7.20;64.80;100931.17;1738588;81;21147;-34
2020/12/07 06:31:15;;;;;;;17.70;9.53;;;;;;;-7.13;64.62;100928.54;1739401;81;21090;-34
2020/12/07 06:33:51;;;;;;;20.55;9.93;;;;;;;-7.13;64.70;100935.13;1742811;81;21182;-35
2020/12/07 06:36:32;;;;;;;23.20;10.20;;;;;;;-7.11;64.62;100933.89;1736333;81;21433;-35
2020/12/07 06:39:07;;;;;;;18.95;10.08;;;;;;;-7.02;64.47;100936.33;1724501;81;21786;-35
2020/12/07 06:41:48;;;;;;;20.00;9.90;;;;;;;-7.05;64.55;100928.31;1776410;80;21170;-35
2020/12/07 06:44:19;;;;;;;22.55;10.30;;;;;;;-7.08;64.70;100920.83;1729038;82;21086;-35
2020/12/07 06:47:02;;;;;;;20.60;10.53;;;;;;;-7.04;64.66;100922.84;1730738;80;21127;-34
2020/12/07 06:52:15;;;;;;;22.32;10.05;;;;;;;-7.02;64.79;100933.70;1830257;78;22820;-34
2020/12/07 06:57:51;;;;;;;23.10;10.32;;;;;;;-6.97;64.77;100923.34;1802561;79;21377;-34
2020/12/07 07:00:25;;;;;;;23.27;10.20;;;;;;;-6.89;64.67;100928.39;1812182;79;21047;-34
2020/12/07 07:02:59;;;;;;;22.37;11.20;;;;;;;-6.87;64.58;100925.83;1816262;78;20964;-34
2020/12/07 07:05:30;;;;;;;22.10;10.15;;;;;;;-6.86;64.57;100926.14;1792179;78;21545;-33
2020/12/07 07:07:59;;;;;;;21.82;9.83;;;;;;;-6.82;64.60;100924.70;1799007;78;21559;-34
2020/12/07 07:10:27;;;;;;;22.85;11.22;;;;;;;-6.73;65.06;100923.45;1790731;78;21597;-33
2020/12/07 07:12:56;;;;;;;22.37;11.45;;;;;;;-6.63;64.41;100922.50;1803699;78;21027;-33
2020/12/07 07:15:25;;;;;;;21.85;10.60;;;;;;;-6.60;64.00;100926.06;1748979;82;21061;-34
2020/12/07 07:17:55;;;;;;;22.45;9.90;;;;;;;-6.52;64.06;100929.47;1751088;80;21012;-33
2020/12/07 07:20:24;;;;;;;21.02;10.38;;;;;;;-6.51;64.04;100925.81;1737546;80;21178;-33
2020/12/07 07:22:56;;;;;;;25.82;10.95;;;;;;;-6.49;64.18;100927.75;1708227;81;22124;-34
2020/12/07 07:25:48;;;;;;;;;;;;;;;-6.39;64.04;100934.17;1721355;82;21381;-34
2020/12/07 07:30:30;;;;;;;24.65;11.05;;;;;;;-6.31;63.80;100931.31;1732678;81;21150;-34
2020/12/07 07:32:58;;;;;;;23.98;10.45;;;;;;;-6.29;63.53;100936.36;1738940;81;21151;-34
2020/12/07 07:35:29;;;;;;;23.85;11.60;;;;;;;-6.21;63.62;100931.67;1730355;81;21297;-34
2020/12/07 07:37:58;;;;;;;23.42;11.55;;;;;;;-6.12;63.44;100931.41;1732407;81;21026;-34
2020/12/07 07:40:28;;;;;;;19.80;10.43;;;;;;;-6.11;63.31;100925.12;1726945;81;21171;-34
2020/12/07 07:45:39;;;;;;;27.25;12.13;;;;;;;-5.88;63.34;100928.83;1864674;75;22655;-34
2020/12/07 07:48:17;;;;;;;21.57;11.45;;;;;;;-5.88;62.48;100924.05;1842130;76;21034;-34
2020/12/07 08:02:57;;;;;;;22.95;10.63;;;;;;;-5.46;62.06;100931.72;1782976;79;21000;-34
2020/12/07 08:16:02;;;;;;;21.50;10.75;;;;;;;-4.93;59.87;100930.20;1810026;78;20259;-34
2020/12/07 08:18:37;;;;;;;24.90;11.93;;;;;;;-4.91;60.18;100923.39;1807512;78;21439;-34
2020/12/07 08:21:06;;;;;;;22.93;11.10;;;;;;;-4.67;59.33;100908.47;1794670;78;21174;-34
2020/12/07 08:23:34;;;;;;;22.40;11.70;;;;;;;-4.67;59.33;100908.47;1789805;80;21198;-34
2020/12/07 08:26:05;;;;;;;23.15;10.93;;;;;;;-4.51;59.13;100918.46;1804535;78;21106;-34
2020/12/07 08:28:38;;;;;;;21.35;11.53;;;;;;;-4.37;58.68;100919.09;1786931;78;21027;-35
2020/12/07 08:31:17;;;;;;;21.40;11.83;;;;;;;-4.24;59.01;100921.56;1776522;80;21361;-34
2020/12/07 08:34:07;;;;;;;24.05;10.82;;;;;;;-4.07;57.92;100914.11;1789562;80;21130;-34
2020/12/07 08:36:37;;;;;;;24.12;12.03;;;;;;;-3.90;57.96;100924.05;1780648;80;21182;-34
2020/12/07 08:39:05;;;;;;;21.97;11.38;;;;;;;-3.78;57.46;100911.66;1786198;79;21625;-34
2020/12/07 08:41:34;;;;;;;25.35;11.20;;;;;;;-3.69;57.12;100908.95;1775002;78;21626;-34
2020/12/07 08:44:08;;;;;;;23.40;11.88;;;;;;;-3.60;56.91;100901.77;1786957;78;21220;-34
2020/12/07 08:46:39;;;;;;;20.95;10.30;;;;;;;-3.59;56.24;100895.44;1804562;79;21031;-34
2020/12/07 08:49:08;;;;;;;21.68;12.15;;;;;;;-3.51;56.47;100895.61;1798951;78;21029;-35
2020/12/07 08:51:37;;;;;;;24.52;11.78;;;;;;;-3.48;56.54;100895.14;1803349;79;21162;-34
2020/12/07 08:54:07;;;;;;;24.02;11.22;;;;;;;-3.40;56.48;100900.12;1772707;80;21150;-34
2020/12/07 08:56:35;;;;;;;;;;;;;;;-3.31;55.94;100880.17;1779357;80;21380;-34
2020/12/07 08:59:03;;;;;;;20.48;11.30;;;;;;;-3.26;56.32;100884.27;1779311;79;21914;-35
2020/12/07 09:01:31;;;;;;;22.95;10.78;;;;;;;-3.23;55.69;100871.05;1802894;78;21026;-34
2020/12/07 09:04:02;;;;;;;21.85;10.70;;;;;;;-3.14;55.54;100870.98;1771287;80;22097;-34
2020/12/07 09:06:30;;;;;;;22.73;11.08;;;;;;;-3.07;55.88;100880.45;1820410;78;21142;-35
2020/12/07 09:08:59;;;;;;;20.37;10.80;;;;;;;-2.96;55.28;100873.52;1788138;78;21267;-34
2020/12/07 09:11:28;;;;;;;22.98;11.83;;;;;;;-2.85;55.31;100871.86;1781014;79;21718;-34
2020/12/07 09:13:56;;;;;;;24.63;11.85;;;;;;;-2.74;55.46;100874.50;1782201;78;21157;-35
2020/12/07 09:16:25;;;;;;;21.00;11.80;;;;;;;-2.60;54.28;100865.73;1769629;80;21063;-34
2020/12/07 09:18:57;;;;;;;22.22;11.15;;;;;;;-2.47;54.14;100864.67;1772546;80;21178;-35
2020/12/07 09:21:25;;;;;;;20.85;11.05;;;;;;;-2.52;53.65;100860.59;1792044;78;21262;-34
2020/12/07 09:23:54;;;;;;;28.25;11.08;;;;;;;-2.50;53.40;100859.81;1785644;80;21139;-34
2020/12/07 09:26:22;;;;;;;21.77;11.75;;;;;;;-2.42;53.68;100857.58;1766277;80;21162;-35
2020/12/07 09:28:50;;;;;;;19.95;11.43;;;;;;;-2.39;53.29;100853.14;1785316;78;21149;-34
2020/12/07 09:31:19;;;;;;;24.25;11.55;;;;;;;-2.30;53.51;100849.58;1785490;78;21106;-34
2020/12/07 09:33:49;;;;;;;22.10;11.95;;;;;;;-2.21;53.02;100848.95;1776177;79;21253;-34
2020/12/07 09:36:17;;;;;;;20.87;9.77;;;;;;;-2.10;52.87;100843.81;1789305;78;21165;-35
2020/12/07 09:38:46;;;;;;;21.68;11.20;;;;;;;-1.96;52.41;100837.95;1783581;79;21381;-34
2020/12/07 09:41:14;;;;;;;24.65;11.35;;;;;;;-1.87;52.05;100842.34;1783455;78;21109;-34
2020/12/07 09:43:42;;;;;;;21.33;11.65;;;;;;;-1.81;51.99;100836.06;1786344;78;21142;-35
2020/12/07 09:46:12;;;;;;;20.37;10.35;;;;;;;-1.83;52.08;100829.66;1787820;78;21277;-35
2020/12/07 09:48:41;;;;;;;19.98;11.30;;;;;;;-1.71;52.24;100828.77;1773167;80;21161;-34
2020/12/07 09:51:11;;;;;;;17.15;10.32;;;;;;;-1.62;51.32;100813.50;1792645;78;21134;-34
2020/12/07 09:53:40;;;;;;;18.57;10.78;;;;;;;-1.60;51.45;100815.41;1790844;79;21185;-35
2020/12/07 09:56:10;;;;;;;19.82;10.75;;;;;;;-1.61;51.29;100812.98;1776578;80;21146;-34
2020/12/07 09:58:40;;;;;;;;;;;;;;;-1.57;51.69;100814.91;1786155;78;21431;-35
2020/12/07 10:01:09;;;;;;;18.98;10.85;;;;;;;-1.42;51.11;100812.98;1771626;80;20238;-35
2020/12/07 10:03:38;;;;;;;20.50;11.08;;;;;;;-1.46;50.35;100806.03;1776547;79;21165;-35
2020/12/07 10:06:08;;;;;;;19.25;11.00;;;;;;;-1.43;50.29;100804.20;1775390;80;21178;-34
2020/12/07 10:08:37;;;;;;;19.87;10.93;;;;;;;-1.29;50.22;100802.51;1788885;80;21114;-35
2020/12/07 10:11:06;;;;;;;18.40;10.25;;;;;;;-1.18;50.23;100809.59;1787879;78;21361;-35
2020/12/07 10:13:35;;;;;;;20.30;10.58;;;;;;;-1.16;49.67;100802.17;1804476;79;21178;-36
2020/12/07 10:16:03;;;;;;;21.68;11.05;;;;;;;-1.41;49.81;100748.92;1800631;78;21523;-37
2020/12/07 10:18:31;;;;;;;25.57;12.03;;;;;;;-1.05;49.22;100798.56;1732001;80;21170;-35
2020/12/07 10:21:00;;;;;;;21.33;10.72;;;;;;;-1.13;48.91;100797.16;1787051;78;21162;-35
2020/12/07 10:23:28;;;;;;;20.30;10.75;;;;;;;-1.18;49.67;100788.30;1776914;79;21194;-34
2020/12/07 10:25:56;;;;;;;18.95;10.90;;;;;;;-1.19;49.58;100796.00;1791308;78;21166;-35
2020/12/07 10:28:27;;;;;;;;;;;;;;;-1.15;48.92;100780.62;1790914;79;21142;-35
2020/12/07 10:30:56;;;;;;;19.35;11.00;;;;;;;-1.09;49.20;100793.46;1780937;78;20295;-35
2020/12/07 10:33:24;;;;;;;25.17;11.00;;;;;;;-1.19;48.95;100786.69;1758167;80;21186;-35
2020/12/07 10:35:53;;;;;;;26.05;11.80;;;;;;;-1.10;48.88;100787.34;1789689;79;22258;-35
2020/12/07 10:38:23;;;;;;;19.42;10.60;;;;;;;-1.05;49.02;100783.41;1789408;80;21186;-35
2020/12/07 10:40:52;;;;;;;17.55;9.80;;;;;;;-1.03;49.23;100783.17;1793208;80;21569;-35
2020/12/07 10:43:20;;;;;;;23.10;10.63;;;;;;;-1.03;49.12;100776.52;1782724;80;21705;-35
2020/12/07 10:45:48;;;;;;;19.60;9.73;;;;;;;-1.05;49.08;100762.11;1766219;79;21561;-35
2020/12/07 10:48:17;;;;;;;16.70;10.05;;;;;;;-0.97;49.02;100767.55;1763721;79;22239;-35
2020/12/07 10:50:45;;;;;;;20.25;11.57;;;;;;;-0.98;48.36;100765.92;1773922;79;21174;-35
2020/12/07 10:53:14;;;;;;;16.00;10.48;;;;;;;-1.03;48.70;100749.90;1773009;79;21035;-35
2020/12/07 10:55:42;;;;;;;18.40;10.65;;;;;;;-1.03;48.77;100759.22;1768934;80;21195;-35
2020/12/07 10:58:10;;;;;;;23.73;11.20;;;;;;;-1.05;48.59;100751.99;1787552;78;21142;-34
2020/12/07 11:00:39;;;;;;;19.05;10.48;;;;;;;-1.03;48.61;100743.25;1783711;78;21448;-35
2020/12/07 11:03:08;;;;;;;19.17;10.75;;;;;;;-1.04;48.67;100741.63;1763064;79;21146;-37
2020/12/07 11:05:39;;;;;;;;;;;;;;;-0.93;48.64;100741.50;1789886;79;21174;-36
2020/12/07 11:08:18;;;;;;;;;;;;;;;-0.84;48.37;100736.53;1796055;79;20535;-35
2020/12/07 11:10:39;;;;;;;19.57;10.58;;;;;;;-0.86;48.19;100747.95;1776293;80;20281;-36
2020/12/07 11:13:21;;;;;;;18.87;10.43;;;;;;;-0.87;48.58;100737.82;1790704;80;21394;-35
2020/12/07 11:15:38;;;;;;;23.65;11.18;;;;;;;-0.80;47.69;100732.31;1786268;78;21177;-35
2020/12/07 11:18:06;;;;;;;20.48;11.08;;;;;;;-0.86;47.64;100729.31;1789241;79;21129;-35
2020/12/07 11:20:35;;;;;;;15.83;10.28;;;;;;;-0.87;48.14;100717.86;1788691;79;21145;-35
2020/12/07 11:23:08;;;;;;;20.77;11.20;;;;;;;-0.82;47.79;100717.66;1753812;80;21126;-35
2020/12/07 11:25:37;;;;;;;21.87;10.95;;;;;;;-0.82;47.84;100705.13;1761688;81;21553;-35
2020/12/07 11:28:06;;;;;;;20.50;11.33;;;;;;;-0.88;48.16;100715.47;1759119;79;21184;-35
2020/12/07 11:30:35;;;;;;;23.25;11.80;;;;;;;-0.83;48.41;100706.72;1763283;80;21027;-35
2020/12/07 11:33:03;;;;;;;20.85;10.80;;;;;;;-0.77;48.16;100713.69;1789839;78;21460;-34
2020/12/07 11:35:31;;;;;;;20.72;11.12;;;;;;;-0.82;47.86;100718.44;1811956;78;21123;-34
2020/12/07 11:40:53;;;;;;;23.50;11.48;;;;;;;-0.74;47.33;100698.03;1821371;78;22703;-35
2020/12/07 11:43:18;;;;;;;19.50;10.23;;;;;;;-0.85;47.57;100698.98;1795957;79;21020;-35
2020/12/07 11:45:46;;;;;;;19.77;9.95;;;;;;;-0.87;47.55;100714.38;1798642;79;21094;-35
2020/12/07 11:48:15;;;;;;;19.70;10.58;;;;;;;-0.89;47.67;100708.53;1781986;77;21077;-35
2020/12/07 11:50:43;;;;;;;18.00;10.48;;;;;;;-0.95;47.82;100710.85;1778935;77;21290;-35
2020/12/07 11:53:12;;;;;;;19.73;10.80;;;;;;;-0.93;47.97;100705.57;1779295;77;21092;-34
2020/12/07 11:55:46;;;;;;;23.12;11.10;;;;;;;-0.98;48.06;100704.70;1801305;77;20989;-34
2020/12/07 11:58:16;;;;;;;21.90;11.30;;;;;;;-1.12;48.43;100706.16;1795200;77;21194;-34
2020/12/07 12:00:45;;;;;;;19.82;11.43;;;;;;;-1.11;48.85;100699.75;1792898;79;21008;-34
2020/12/07 12:03:16;;;;;;;;;;;;;;;-1.24;48.34;100701.48;1792804;79;21016;-34
2020/12/07 12:05:45;;;;;;;19.42;11.00;;;;;;;-1.46;48.56;100702.83;1798132;77;20251;-34
2020/12/07 12:08:13;;;;;;;17.10;9.93;;;;;;;-1.81;49.48;100701.84;1754360;81;21146;-34